Time;durP1;ratioP1;P1;durP2;ratioP2;P2;SDS_P1;SDS_P2;PMS_P1;PMS_P2;Temp;Humidity;BMP_temperature;BMP_pressure;BME280_temperature;BME280_humidity;BME280_pressure;Samples;Min_cycle;Max_cycle;Signal;HPM_P1;HPM_P2
2021/03/17 05:10:49;;;;;;;1.20;1.20;;;4.10;99.90;;;;;;5809456;23;20294;-79
2021/03/17 05:13:17;;;;;;;1.27;1.27;;;4.10;99.90;;;;;;5017964;28;20208;-79
2021/03/17 05:15:46;;;;;;;1.40;1.40;;;4.00;99.90;;;;;;5017034;28;20238;-79
2021/03/17 05:18:16;;;;;;;1.10;1.10;;;4.10;99.90;;;;;;5017892;28;20239;-79
2021/03/17 05:20:46;;;;;;;1.40;1.40;;;4.00;99.90;;;;;;5016914;28;20223;-79
2021/03/17 05:23:13;;;;;;;1.30;1.30;;;3.90;99.90;;;;;;5017226;28;20581;-79
2021/03/17 05:25:41;;;;;;;1.20;1.20;;;4.00;99.90;;;;;;5018216;28;20203;-79
2021/03/17 05:28:09;;;;;;;1.10;1.10;;;4.10;99.90;;;;;;5019938;28;20250;-79
2021/03/17 05:30:38;;;;;;;1.37;1.37;;;3.90;99.90;;;;;;5019960;28;20281;-79
2021/03/17 05:33:07;;;;;;;1.50;1.50;;;4.00;99.90;;;;;;5013592;28;20211;-82
2021/03/17 05:35:35;;;;;;;1.10;1.10;;;3.90;99.90;;;;;;5017863;28;20234;-83
2021/03/17 05:38:03;;;;;;;1.20;1.20;;;4.00;99.90;;;;;;5018144;28;20219;-82
2021/03/17 05:40:32;;;;;;;1.37;1.37;;;3.90;99.90;;;;;;5018125;28;20238;-83
2021/03/17 05:43:00;;;;;;;1.30;1.30;;;4.00;99.90;;;;;;5018819;28;20638;-83
2021/03/17 05:45:29;;;;;;;1.20;1.20;;;3.90;99.90;;;;;;5018826;28;20227;-82
2021/03/17 05:48:09;;;;;;;1.20;1.20;;;3.90;99.90;;;;;;5018525;28;20207;-82
2021/03/17 05:50:37;;;;;;;1.40;1.40;;;3.80;99.90;;;;;;5018471;28;20274;-83
2021/03/17 05:53:06;;;;;;;1.30;1.30;;;3.80;99.90;;;;;;5020634;28;20203;-81
2021/03/17 05:55:33;;;;;;;1.30;1.30;;;3.80;99.90;;;;;;5027613;28;20662;-81
2021/03/17 05:58:00;;;;;;;1.30;1.30;;;3.80;99.90;;;;;;5024214;28;20203;-81
2021/03/17 06:00:28;;;;;;;1.40;1.40;;;4.00;99.90;;;;;;5021169;28;20210;-83
2021/03/17 06:02:57;;;;;;;1.20;1.20;;;3.90;99.90;;;;;;5020562;28;20203;-83
2021/03/17 06:05:25;;;;;;;1.30;1.30;;;4.00;99.90;;;;;;5022536;28;20257;-83
2021/03/17 06:08:00;;;;;;;1.20;1.20;;;3.80;99.90;;;;;;5020485;28;20222;-82
2021/03/17 06:10:28;;;;;;;1.30;1.30;;;3.80;99.90;;;;;;5019565;28;20203;-82
2021/03/17 06:12:59;;;;;;;1.20;1.20;;;3.70;99.90;;;;;;5016987;28;20214;-82
2021/03/17 06:15:28;;;;;;;1.20;1.20;;;3.80;99.90;;;;;;5017730;28;20278;-79
2021/03/17 06:17:58;;;;;;;1.30;1.30;;;3.80;99.90;;;;;;5017046;28;20207;-79
2021/03/17 06:20:27;;;;;;;1.20;1.20;;;3.70;99.90;;;;;;5018065;28;20200;-81
2021/03/17 06:22:54;;;;;;;1.20;1.20;;;3.70;99.90;;;;;;5024594;28;20218;-82
2021/03/17 06:25:21;;;;;;;1.50;1.50;;;3.90;99.90;;;;;;5027573;28;20205;-77
2021/03/17 06:27:48;;;;;;;1.20;1.20;;;3.90;99.90;;;;;;5034274;28;20237;-80
2021/03/17 06:30:16;;;;;;;1.20;1.20;;;3.80;99.90;;;;;;5036198;28;20710;-77
2021/03/17 06:32:44;;;;;;;1.13;1.13;;;3.80;99.90;;;;;;5037233;28;20198;-78
2021/03/17 06:35:20;;;;;;;1.23;1.23;;;3.80;99.90;;;;;;5030393;28;20203;-79
2021/03/17 06:37:50;;;;;;;1.40;1.40;;;3.70;99.90;;;;;;5017250;28;20570;-81
2021/03/17 06:40:30;;;;;;;1.30;1.30;;;3.70;99.90;;;;;;5027828;28;20241;-79
2021/03/17 06:43:06;;;;;;;1.30;1.30;;;3.80;99.90;;;;;;5020915;28;20548;-81
2021/03/17 06:45:37;;;;;;;1.37;1.37;;;3.80;99.90;;;;;;5027249;28;20206;-82
2021/03/17 06:48:25;;;;;;;1.20;1.20;;;3.80;99.90;;;;;;5028635;28;20759;-80
2021/03/17 06:51:08;;;;;;;1.30;1.30;;;3.90;99.90;;;;;;5022580;28;20261;-79
2021/03/17 06:53:36;;;;;;;1.27;1.27;;;3.90;99.90;;;;;;5030251;28;20199;-81
2021/03/17 06:56:21;;;;;;;1.30;1.30;;;3.90;99.90;;;;;;5036857;28;20233;-78
2021/03/17 06:58:49;;;;;;;1.30;1.30;;;3.90;99.90;;;;;;5035050;28;20274;-79
2021/03/17 07:01:27;;;;;;;1.30;1.30;;;3.90;99.90;;;;;;5036968;28;20601;-77
2021/03/17 07:03:57;;;;;;;1.10;1.10;;;3.90;99.90;;;;;;5034134;28;20206;-77
2021/03/17 07:06:25;;;;;;;1.20;1.20;;;3.80;99.90;;;;;;5035992;28;20199;-78
2021/03/17 07:08:52;;;;;;;1.13;1.13;;;3.90;99.90;;;;;;5037581;28;20214;-79
2021/03/17 07:11:27;;;;;;;1.30;1.30;;;3.90;99.90;;;;;;5039127;28;20316;-79
2021/03/17 07:14:01;;;;;;;1.20;1.20;;;4.00;99.90;;;;;;5037635;28;20674;-78
2021/03/17 07:16:32;;;;;;;1.23;1.23;;;3.90;99.90;;;;;;5036860;28;20240;-79
2021/03/17 07:19:34;;;;;;;1.30;1.30;;;4.00;99.90;;;;;;5037315;28;20233;-79
2021/03/17 07:22:10;;;;;;;1.40;1.40;;;3.80;99.90;;;;;;5036293;28;20230;-80
2021/03/17 07:24:39;;;;;;;1.10;1.10;;;3.80;99.90;;;;;;5036136;28;20256;-82
2021/03/17 07:27:14;;;;;;;1.30;1.30;;;3.90;99.90;;;;;;5036086;28;20256;-81
2021/03/17 07:29:42;;;;;;;1.30;1.30;;;4.00;99.90;;;;;;5035739;28;20674;-81
2021/03/17 07:32:09;;;;;;;1.20;1.20;;;4.00;99.90;;;;;;5034963;28;20242;-81
2021/03/17 07:34:39;;;;;;;1.20;1.20;;;4.00;99.90;;;;;;5034655;28;20202;-80
2021/03/17 07:37:08;;;;;;;1.10;1.10;;;4.00;99.90;;;;;;5035199;28;20223;-81
2021/03/17 07:39:36;;;;;;;1.40;1.40;;;3.90;99.90;;;;;;5036384;28;20622;-78
2021/03/17 07:42:05;;;;;;;1.30;1.30;;;4.00;99.90;;;;;;5036151;28;20233;-78
2021/03/17 07:44:35;;;;;;;1.20;1.20;;;4.10;99.90;;;;;;5038470;28;20211;-79
2021/03/17 07:47:05;;;;;;;1.10;1.10;;;4.10;99.90;;;;;;5038178;28;20266;-81
2021/03/17 07:49:48;;;;;;;1.20;1.20;;;4.10;99.90;;;;;;5039421;28;20233;-77
2021/03/17 07:52:19;;;;;;;1.30;1.30;;;4.30;99.90;;;;;;5040872;28;20260;-82
2021/03/17 07:54:51;;;;;;;1.40;1.40;;;4.30;99.90;;;;;;5037000;28;20646;-78
2021/03/17 07:57:20;;;;;;;1.20;1.20;;;4.30;99.90;;;;;;5019991;28;20219;-77
2021/03/17 07:59:54;;;;;;;1.20;1.20;;;4.20;99.90;;;;;;5012060;28;20206;-77
2021/03/17 08:02:21;;;;;;;1.23;1.23;;;4.10;99.90;;;;;;5025585;28;20246;-78
2021/03/17 08:04:51;;;;;;;1.43;1.43;;;3.90;99.90;;;;;;5039845;28;20276;-77
2021/03/17 08:07:19;;;;;;;1.50;1.50;;;3.80;99.90;;;;;;5014696;28;20203;-78
2021/03/17 08:09:46;;;;;;;1.23;1.23;;;3.80;99.90;;;;;;5013772;28;20200;-78
2021/03/17 08:12:16;;;;;;;1.20;1.20;;;3.90;99.90;;;;;;5016705;28;20306;-78
2021/03/17 08:14:43;;;;;;;1.47;1.47;;;3.90;99.90;;;;;;5017154;28;20207;-79
2021/03/17 08:17:11;;;;;;;1.17;1.17;;;4.00;99.90;;;;;;5017145;28;20227;-79
2021/03/17 08:20:13;;;;;;;1.37;1.37;;;4.00;99.90;;;;;;5017833;28;20203;-80
2021/03/17 08:22:41;;;;;;;1.40;1.40;;;3.90;99.90;;;;;;5015871;28;20196;-78
2021/03/17 08:25:09;;;;;;;1.23;1.23;;;3.90;99.90;;;;;;5017058;28;20199;-78
2021/03/17 08:27:37;;;;;;;1.30;1.30;;;3.90;99.90;;;;;;5017215;28;20335;-77
2021/03/17 08:30:13;;;;;;;1.20;1.20;;;3.90;99.90;;;;;;5016955;28;20207;-78
2021/03/17 08:33:02;;;;;;;1.30;1.30;;;4.10;99.90;;;;;;5016576;28;20734;-78
2021/03/17 08:36:05;;;;;;;1.23;1.23;;;4.20;99.90;;;;;;5012676;28;20203;-78
2021/03/17 08:38:47;;;;;;;1.50;1.50;;;4.10;99.90;;;;;;5016770;28;20205;-78
2021/03/17 08:41:14;;;;;;;1.53;1.53;;;4.00;99.90;;;;;;5016702;28;20223;-78
2021/03/17 08:43:45;;;;;;;1.23;1.23;;;4.00;99.90;;;;;;5016609;28;20227;-78
2021/03/17 08:46:14;;;;;;;1.30;1.30;;;4.00;99.90;;;;;;5017602;28;20199;-77
2021/03/17 08:49:02;;;;;;;1.27;1.27;;;4.10;99.90;;;;;;5015435;28;20664;-78
2021/03/17 08:52:08;;;;;;;1.20;1.20;;;4.20;99.90;;;;;;5014957;28;20223;-77
2021/03/17 08:55:06;;;;;;;1.53;1.53;;;4.20;99.90;;;;;;5008087;28;20206;-77
2021/03/17 08:57:54;;;;;;;1.40;1.40;;;4.10;99.90;;;;;;5015462;28;20228;-78
2021/03/17 09:01:04;;;;;;;1.30;1.30;;;4.10;99.90;;;;;;5014577;28;20253;-77
2021/03/17 09:03:38;;;;;;;1.30;1.30;;;4.20;99.90;;;;;;5014301;28;20203;-77
2021/03/17 09:06:22;;;;;;;1.40;1.40;;;4.30;99.90;;;;;;5014201;28;20206;-78
2021/03/17 09:08:58;;;;;;;1.30;1.30;;;4.40;99.90;;;;;;5015145;28;20207;-78
2021/03/17 09:11:58;;;;;;;1.20;1.20;;;4.50;99.90;;;;;;5015176;28;20281;-78
2021/03/17 09:14:38;;;;;;;1.30;1.30;;;4.60;99.90;;;;;;4994649;28;20622;-78
2021/03/17 09:17:17;;;;;;;1.20;1.20;;;4.70;99.90;;;;;;4995219;28;20219;-80
2021/03/17 09:20:28;;;;;;;1.10;1.10;;;4.80;99.90;;;;;;5004296;28;20207;-77
2021/03/17 09:23:06;;;;;;;1.40;1.40;;;4.50;99.90;;;;;;5013557;28;20270;-77
2021/03/17 09:25:39;;;;;;;1.40;1.40;;;4.30;99.90;;;;;;5014192;28;20207;-79
2021/03/17 09:28:08;;;;;;;1.30;1.30;;;4.40;99.90;;;;;;5014094;28;20199;-78
2021/03/17 09:30:39;;;;;;;1.43;1.43;;;4.40;99.90;;;;;;5016937;28;20248;-78
2021/03/17 09:33:09;;;;;;;1.10;1.10;;;4.40;99.90;;;;;;5017902;28;20657;-79
2021/03/17 09:35:37;;;;;;;1.30;1.30;;;4.70;99.90;;;;;;5019517;28;20202;-79
2021/03/17 09:38:10;;;;;;;1.17;1.17;;;4.60;99.90;;;;;;5015518;28;20223;-80
2021/03/17 09:40:47;;;;;;;1.40;1.40;;;4.80;99.90;;;;;;5015826;28;20227;-78
2021/03/17 09:43:36;;;;;;;1.20;1.20;;;4.90;99.90;;;;;;5018091;28;20290;-79
2021/03/17 09:46:18;;;;;;;1.40;1.40;;;4.90;99.90;;;;;;5020762;28;20261;-79
2021/03/17 09:48:45;;;;;;;1.20;1.20;;;4.70;99.90;;;;;;5018851;28;20276;-79
2021/03/17 09:51:23;;;;;;;1.30;1.30;;;4.80;99.90;;;;;;5019103;28;20286;-80
2021/03/17 09:53:51;;;;;;;1.50;1.50;;;4.60;99.90;;;;;;5019476;28;20660;-78
2021/03/17 09:56:40;;;;;;;1.40;1.40;;;4.70;99.90;;;;;;5019160;28;20246;-79
2021/03/17 09:59:20;;;;;;;1.30;1.30;;;4.70;99.90;;;;;;5022714;28;20218;-79
2021/03/17 10:01:50;;;;;;;1.40;1.40;;;4.60;99.90;;;;;;5017825;28;20621;-81
2021/03/17 10:04:23;;;;;;;1.43;1.43;;;4.90;99.90;;;;;;5016411;28;20250;-81
2021/03/17 10:06:51;;;;;;;1.43;1.43;;;5.10;99.90;;;;;;5008374;28;20204;-80
2021/03/17 10:09:19;;;;;;;1.10;1.10;;;5.00;99.90;;;;;;5013570;28;20234;-82
2021/03/17 10:11:47;;;;;;;1.20;1.20;;;5.00;99.90;;;;;;5010413;28;20234;-80
2021/03/17 10:14:16;;;;;;;1.20;1.20;;;5.20;99.90;;;;;;5017213;28;20206;-80
2021/03/17 10:16:45;;;;;;;1.20;1.20;;;5.20;99.90;;;;;;5028269;28;20272;-80
2021/03/17 10:19:14;;;;;;;1.23;1.23;;;5.20;99.90;;;;;;5012587;28;20238;-79
2021/03/17 10:21:48;;;;;;;1.30;1.30;;;5.30;99.90;;;;;;5006113;28;20280;-80
2021/03/17 10:24:28;;;;;;;1.30;1.30;;;5.20;99.90;;;;;;5023468;28;20199;-80
2021/03/17 10:26:56;;;;;;;1.33;1.33;;;5.00;99.90;;;;;;4996490;28;20234;-79
2021/03/17 10:29:23;;;;;;;1.20;1.20;;;4.90;99.90;;;;;;4999207;28;20609;-81
2021/03/17 10:31:54;;;;;;;1.17;1.17;;;5.10;99.90;;;;;;5036726;28;20222;-80
2021/03/17 10:34:23;;;;;;;1.30;1.30;;;5.10;99.90;;;;;;5036276;28;20203;-79
2021/03/17 10:36:51;;;;;;;1.27;1.27;;;5.10;99.90;;;;;;5035916;28;20222;-80
2021/03/17 10:39:18;;;;;;;1.30;1.30;;;5.20;99.90;;;;;;5035413;28;20256;-80
2021/03/17 10:41:47;;;;;;;1.30;1.30;;;5.20;99.90;;;;;;5036027;28;20218;-80
2021/03/17 10:44:16;;;;;;;1.20;1.20;;;5.20;99.90;;;;;;5021141;28;20579;-80
2021/03/17 10:47:01;;;;;;;1.30;1.30;;;5.30;99.90;;;;;;5026359;28;20202;-79
2021/03/17 10:49:30;;;;;;;1.20;1.20;;;5.30;99.90;;;;;;5027046;28;20215;-80
2021/03/17 10:52:07;;;;;;;1.23;1.23;;;5.20;99.90;;;;;;5014293;28;20602;-80
2021/03/17 10:54:36;;;;;;;1.30;1.30;;;5.30;99.90;;;;;;5014475;28;20203;-80
2021/03/17 10:57:21;;;;;;;1.40;1.40;;;5.40;99.90;;;;;;5016731;28;20234;-81
2021/03/17 10:59:49;;;;;;;1.20;1.20;;;5.50;99.90;;;;;;5018395;28;20706;-80
2021/03/17 11:02:19;;;;;;;1.20;1.20;;;5.80;99.90;;;;;;5034454;28;20218;-80
2021/03/17 11:05:11;;;;;;;1.40;1.40;;;6.10;99.90;;;;;;5034445;28;20270;-80
2021/03/17 11:07:50;;;;;;;1.20;1.20;;;6.20;99.90;;;;;;5019189;28;20239;-79
2021/03/17 11:10:42;;;;;;;1.20;1.20;;;5.90;99.90;;;;;;5014118;28;20207;-79
2021/03/17 11:13:30;;;;;;;1.20;1.20;;;5.90;99.90;;;;;;5013221;28;20220;-80
2021/03/17 11:15:59;;;;;;;1.17;1.17;;;5.80;99.90;;;;;;5012250;28;20204;-77
2021/03/17 11:18:29;;;;;;;1.10;1.10;;;6.00;99.90;;;;;;5011129;28;20288;-80
2021/03/17 11:20:58;;;;;;;1.10;1.10;;;6.10;99.90;;;;;;5012199;28;20235;-77
2021/03/17 11:23:27;;;;;;;1.13;1.13;;;6.10;99.90;;;;;;5013286;28;20199;-78
2021/03/17 11:25:56;;;;;;;1.10;1.10;;;6.00;99.90;;;;;;5012998;28;20635;-79
2021/03/17 11:28:24;;;;;;;1.10;1.10;;;6.00;99.90;;;;;;4999844;28;20672;-77
2021/03/17 11:30:53;;;;;;;1.30;1.30;;;5.80;99.90;;;;;;5002260;28;20290;-79
2021/03/17 11:33:21;;;;;;;1.30;1.30;;;5.80;99.90;;;;;;5002613;28;20212;-80
2021/03/17 11:36:06;;;;;;;1.27;1.27;;;5.80;99.90;;;;;;5000074;28;20207;-80
2021/03/17 11:38:34;;;;;;;1.20;1.20;;;5.70;99.90;;;;;;4998688;28;20232;-76
2021/03/17 11:41:01;;;;;;;1.20;1.20;;;5.60;99.90;;;;;;4995865;28;20231;-77
2021/03/17 11:43:31;;;;;;;1.20;1.20;;;5.60;99.90;;;;;;4995959;28;20208;-77
2021/03/17 11:46:00;;;;;;;1.20;1.20;;;5.60;99.90;;;;;;4995905;28;20211;-80
2021/03/17 11:48:27;;;;;;;1.20;1.20;;;5.50;99.90;;;;;;4997100;28;20592;-80
2021/03/17 11:50:56;;;;;;;1.20;1.20;;;5.40;99.90;;;;;;5014818;28;20230;-78
2021/03/17 11:53:24;;;;;;;1.20;1.20;;;5.40;99.90;;;;;;5016843;28;20284;-79
2021/03/17 11:55:51;;;;;;;1.33;1.33;;;5.40;99.90;;;;;;5015372;28;20684;-77
2021/03/17 11:58:19;;;;;;;1.23;1.23;;;5.30;99.90;;;;;;5014646;28;20466;-78
2021/03/17 12:00:46;;;;;;;1.20;1.20;;;5.30;99.90;;;;;;5015162;28;20234;-77
2021/03/17 12:03:30;;;;;;;1.40;1.40;;;5.10;99.90;;;;;;5015742;28;20254;-80
2021/03/17 12:05:58;;;;;;;1.40;1.40;;;4.90;99.90;;;;;;5015119;28;20691;-78
2021/03/17 12:08:27;;;;;;;1.20;1.20;;;4.70;99.90;;;;;;5016098;28;20199;-79
2021/03/17 12:10:57;;;;;;;1.23;1.23;;;4.70;99.90;;;;;;5014968;28;20231;-77
2021/03/17 12:13:25;;;;;;;1.20;1.20;;;4.70;99.90;;;;;;5015389;28;20261;-80
2021/03/17 12:15:55;;;;;;;1.30;1.30;;;4.70;99.90;;;;;;5015254;28;20261;-78
2021/03/17 12:18:23;;;;;;;1.20;1.20;;;;;;;;;;5015849;28;20223;-79
2021/03/17 12:20:50;;;;;;;1.40;1.40;;;4.80;99.90;;;;;;5016094;28;20219;-79
2021/03/17 12:23:18;;;;;;;1.47;1.47;;;4.60;99.90;;;;;;5016753;28;20200;-78
2021/03/17 12:25:46;;;;;;;1.43;1.43;;;4.70;99.90;;;;;;5016132;28;20206;-78
2021/03/17 12:28:14;;;;;;;1.40;1.40;;;4.70;99.90;;;;;;5015105;28;20207;-78
2021/03/17 12:30:41;;;;;;;1.43;1.43;;;4.50;99.90;;;;;;5015442;28;20274;-77
2021/03/17 12:33:08;;;;;;;1.40;1.40;;;4.40;99.90;;;;;;5012727;28;20613;-77
2021/03/17 12:35:36;;;;;;;1.20;1.20;;;4.50;99.90;;;;;;5001727;28;20196;-77
2021/03/17 12:38:03;;;;;;;1.10;1.10;;;4.50;99.90;;;;;;5017164;28;20591;-77
2021/03/17 12:40:31;;;;;;;1.20;1.20;;;4.40;99.90;;;;;;5012181;28;20716;-77
2021/03/17 12:42:59;;;;;;;1.20;1.20;;;4.50;99.90;;;;;;5020076;28;20697;-77
2021/03/17 12:45:41;;;;;;;1.20;1.20;;;4.60;99.90;;;;;;5025071;28;20290;-78
2021/03/17 12:48:10;;;;;;;1.20;1.20;;;4.70;99.90;;;;;;5014126;28;20294;-80
2021/03/17 12:50:37;;;;;;;1.40;1.40;;;4.70;99.90;;;;;;5019727;28;20223;-79
2021/03/17 12:53:04;;;;;;;1.20;1.20;;;4.80;99.90;;;;;;5017371;28;20207;-79
2021/03/17 12:55:31;;;;;;;1.10;1.10;;;4.80;99.90;;;;;;5015049;28;20257;-79
2021/03/17 12:57:59;;;;;;;1.20;1.20;;;4.90;99.90;;;;;;5014644;28;20226;-79
2021/03/17 13:00:28;;;;;;;1.30;1.30;;;4.80;99.90;;;;;;5014938;28;20204;-77
2021/03/17 13:02:55;;;;;;;1.40;1.40;;;5.00;99.90;;;;;;5014502;28;20294;-78
2021/03/17 13:05:22;;;;;;;1.13;1.13;;;5.10;99.90;;;;;;5015069;28;20273;-78
2021/03/17 13:07:50;;;;;;;1.40;1.40;;;5.00;99.90;;;;;;5015035;28;20206;-78
2021/03/17 13:10:21;;;;;;;1.30;1.30;;;5.10;99.90;;;;;;5015806;28;20638;-77
2021/03/17 13:12:49;;;;;;;1.20;1.20;;;4.90;99.90;;;;;;5015295;28;20211;-78
2021/03/17 13:15:18;;;;;;;1.10;1.10;;;5.00;99.90;;;;;;5014755;28;20253;-78
2021/03/17 13:17:45;;;;;;;1.27;1.27;;;5.00;99.90;;;;;;5015655;28;20246;-79
2021/03/17 13:20:15;;;;;;;1.20;1.20;;;5.00;99.90;;;;;;5017411;28;20203;-78
2021/03/17 13:22:42;;;;;;;1.00;1.00;;;5.20;99.90;;;;;;4998800;28;20207;-79
2021/03/17 13:25:11;;;;;;;1.20;1.20;;;5.30;99.90;;;;;;5013757;28;20204;-78
2021/03/17 13:27:38;;;;;;;1.20;1.20;;;5.30;99.90;;;;;;5018326;28;20205;-80
2021/03/17 13:30:08;;;;;;;1.10;1.10;;;5.30;99.90;;;;;;5019316;28;20205;-79
2021/03/17 13:32:36;;;;;;;1.30;1.30;;;5.30;99.90;;;;;;5019770;28;20576;-79
2021/03/17 13:35:04;;;;;;;1.30;1.30;;;5.10;99.90;;;;;;5018047;28;20206;-80
2021/03/17 13:37:31;;;;;;;1.20;1.20;;;4.90;99.90;;;;;;5027098;28;20223;-79
2021/03/17 13:39:59;;;;;;;1.20;1.20;;;4.80;99.90;;;;;;5024382;28;20227;-79
2021/03/17 13:42:25;;;;;;;1.10;1.10;;;4.80;99.90;;;;;;5031496;28;20686;-80
2021/03/17 13:44:52;;;;;;;1.20;1.20;;;4.70;99.90;;;;;;5024248;28;20202;-81
2021/03/17 13:47:19;;;;;;;1.10;1.10;;;4.50;99.90;;;;;;5024191;28;20226;-80
2021/03/17 13:49:47;;;;;;;1.30;1.30;;;4.20;99.90;;;;;;5028911;28;20214;-80
2021/03/17 13:52:14;;;;;;;1.27;1.27;;;4.00;99.90;;;;;;5020992;28;20227;-78
2021/03/17 13:54:40;;;;;;;1.13;1.13;;;3.80;99.90;;;;;;5009421;28;20687;-79
2021/03/17 13:57:07;;;;;;;1.10;1.10;;;4.00;99.90;;;;;;5019563;28;20226;-81
2021/03/17 13:59:34;;;;;;;1.53;1.53;;;4.30;99.90;;;;;;5011119;28;20211;-79
2021/03/17 14:02:01;;;;;;;1.30;1.30;;;4.40;99.90;;;;;;5003935;28;20223;-79
2021/03/17 14:04:28;;;;;;;1.30;1.30;;;4.60;99.90;;;;;;4996244;28;20207;-79
2021/03/17 14:06:56;;;;;;;1.20;1.20;;;4.60;99.90;;;;;;4996386;28;20200;-79
2021/03/17 14:09:23;;;;;;;1.40;1.40;;;4.90;99.90;;;;;;5006848;28;20199;-80
2021/03/17 14:11:50;;;;;;;1.10;1.10;;;5.00;99.90;;;;;;5012549;28;20231;-79
2021/03/17 14:14:17;;;;;;;1.20;1.20;;;5.10;99.90;;;;;;5012599;28;20211;-80
2021/03/17 14:16:44;;;;;;;1.27;1.27;;;5.20;99.90;;;;;;5013885;28;20215;-79
2021/03/17 14:19:11;;;;;;;1.30;1.30;;;5.30;99.90;;;;;;5001545;28;20207;-79
2021/03/17 14:21:38;;;;;;;1.27;1.27;;;5.50;99.90;;;;;;5014358;28;20219;-80
2021/03/17 14:24:06;;;;;;;1.30;1.30;;;5.60;99.90;;;;;;5014759;28;20285;-79
2021/03/17 14:26:33;;;;;;;1.20;1.20;;;5.70;99.90;;;;;;5014184;28;20203;-80
2021/03/17 14:29:01;;;;;;;1.30;1.30;;;;;;;;;;5014544;28;20207;-81
2021/03/17 14:31:28;;;;;;;1.20;1.20;;;;;;;;;;5014558;28;20219;-79
2021/03/17 14:33:56;;;;;;;1.40;1.40;;;5.90;99.90;;;;;;5015577;28;20663;-80
2021/03/17 14:36:23;;;;;;;1.13;1.13;;;5.90;99.90;;;;;;5015494;28;20203;-82
2021/03/17 14:38:50;;;;;;;1.27;1.27;;;5.90;99.90;;;;;;5012557;28;20227;-79
2021/03/17 14:41:18;;;;;;;1.20;1.20;;;5.90;99.90;;;;;;5023515;28;20242;-79
2021/03/17 14:43:46;;;;;;;1.37;1.37;;;5.60;99.90;;;;;;4995055;28;20660;-79
2021/03/17 14:46:13;;;;;;;1.53;1.53;;;5.50;99.90;;;;;;5013282;28;20211;-79
2021/03/17 14:48:40;;;;;;;1.20;1.20;;;5.00;99.90;;;;;;5019454;28;20645;-80
2021/03/17 14:51:08;;;;;;;1.37;1.37;;;5.70;99.90;;;;;;5011520;28;20223;-79
2021/03/17 14:53:36;;;;;;;1.10;1.10;;;5.60;99.90;;;;;;5011928;28;20751;-81
2021/03/17 14:56:04;;;;;;;1.20;1.20;;;5.70;99.90;;;;;;5019316;28;20210;-80
2021/03/17 14:58:32;;;;;;;1.40;1.40;;;5.80;99.90;;;;;;5020760;28;20254;-80
2021/03/17 15:01:00;;;;;;;0.90;0.90;;;6.10;99.90;;;;;;5020299;28;20223;-77
2021/03/17 15:03:28;;;;;;;1.30;1.30;;;6.30;99.90;;;;;;5014543;28;20582;-78
2021/03/17 15:05:54;;;;;;;1.10;1.10;;;6.60;99.90;;;;;;5013565;28;20207;-79
2021/03/17 15:08:23;;;;;;;1.20;1.20;;;6.60;99.90;;;;;;5013746;28;20203;-79
2021/03/17 15:10:50;;;;;;;1.10;1.10;;;6.50;99.90;;;;;;5013457;28;20323;-78
2021/03/17 15:13:17;;;;;;;1.27;1.27;;;6.60;99.90;;;;;;5014132;28;20200;-78
2021/03/17 15:15:45;;;;;;;1.10;1.10;;;6.90;99.90;;;;;;5013384;28;20211;-81
2021/03/17 15:18:12;;;;;;;1.10;1.10;;;7.00;99.90;;;;;;5013362;28;20292;-81
2021/03/17 15:20:39;;;;;;;1.10;1.10;;;;;;;;;;5014661;28;20754;-82
2021/03/17 15:23:07;;;;;;;1.00;1.00;;;;;;;;;;5013724;28;20215;-81
2021/03/17 15:25:39;;;;;;;1.20;1.20;;;;;;;;;;5015160;28;20203;-79
2021/03/17 15:28:07;;;;;;;1.03;1.03;;;6.50;99.90;;;;;;5014936;28;20215;-79
2021/03/17 15:30:35;;;;;;;1.10;1.10;;;6.20;99.90;;;;;;5014726;28;20627;-80
2021/03/17 15:33:03;;;;;;;1.03;1.03;;;6.10;99.90;;;;;;5013607;28;20229;-79
2021/03/17 15:35:30;;;;;;;1.10;1.10;;;6.10;99.90;;;;;;5012082;28;20203;-80
2021/03/17 15:37:57;;;;;;;1.27;1.27;;;6.20;99.90;;;;;;5013029;28;20700;-79
2021/03/17 15:40:25;;;;;;;1.10;1.10;;;6.10;99.90;;;;;;5013257;28;20215;-81
2021/03/17 15:42:52;;;;;;;1.10;1.10;;;6.10;99.90;;;;;;5013227;28;20269;-80
2021/03/17 15:45:20;;;;;;;1.10;1.10;;;6.00;99.90;;;;;;5012323;28;20211;-79
2021/03/17 15:47:48;;;;;;;1.20;1.20;;;6.00;99.90;;;;;;5012843;28;20199;-79
2021/03/17 15:50:18;;;;;;;1.10;1.10;;;6.80;99.90;;;;;;5012447;28;20207;-80
2021/03/17 15:52:46;;;;;;;1.10;1.10;;;6.10;99.90;;;;;;5015383;28;20200;-80
2021/03/17 15:55:13;;;;;;;1.10;1.10;;;6.00;99.90;;;;;;5013278;28;20203;-80
2021/03/17 15:57:41;;;;;;;1.00;1.00;;;5.90;99.90;;;;;;4999407;28;20223;-80
2021/03/17 16:00:11;;;;;;;1.13;1.13;;;5.90;99.90;;;;;;5011867;28;20202;-81
2021/03/17 16:02:38;;;;;;;1.20;1.20;;;;;;;;;;5012968;28;20609;-82
2021/03/17 16:05:08;;;;;;;1.10;1.10;;;6.00;99.90;;;;;;5012507;28;20211;-81
2021/03/17 16:07:36;;;;;;;1.17;1.17;;;5.80;99.90;;;;;;5014729;28;20719;-80
2021/03/17 16:10:04;;;;;;;1.10;1.10;;;5.80;99.90;;;;;;5012973;28;20206;-80
2021/03/17 16:12:31;;;;;;;1.00;1.00;;;5.90;99.90;;;;;;5013383;28;20284;-80
2021/03/17 16:14:58;;;;;;;1.10;1.10;;;6.10;99.90;;;;;;5017266;28;20210;-79
2021/03/17 16:17:25;;;;;;;1.20;1.20;;;6.10;99.90;;;;;;5018701;28;20262;-80
2021/03/17 16:19:55;;;;;;;1.10;1.10;;;;;;;;;;5016726;28;20203;-79
2021/03/17 16:22:22;;;;;;;1.20;1.20;;;6.10;99.90;;;;;;5013169;28;20618;-80
2021/03/17 16:24:49;;;;;;;1.10;1.10;;;6.10;99.90;;;;;;5016469;28;20736;-79
2021/03/17 16:27:16;;;;;;;1.17;1.17;;;6.00;99.90;;;;;;5017270;28;20204;-80
2021/03/17 16:29:43;;;;;;;1.30;1.30;;;5.90;99.90;;;;;;5018627;28;20265;-80
2021/03/17 16:32:10;;;;;;;1.20;1.20;;;5.70;99.90;;;;;;5018584;28;20230;-79
2021/03/17 16:34:37;;;;;;;1.20;1.20;;;5.60;99.90;;;;;;5019665;28;20211;-79
2021/03/17 16:37:04;;;;;;;1.37;1.37;;;5.40;99.90;;;;;;5018492;28;20642;-79
2021/03/17 16:39:36;;;;;;;1.20;1.20;;;5.20;99.90;;;;;;5020466;28;20241;-80
2021/03/17 16:42:04;;;;;;;1.37;1.37;;;4.90;99.90;;;;;;5022267;28;20231;-80
2021/03/17 16:44:31;;;;;;;1.10;1.10;;;4.90;99.90;;;;;;5019752;28;20199;-80
2021/03/17 16:46:58;;;;;;;1.33;1.33;;;4.60;99.90;;;;;;5018380;28;20206;-79
2021/03/17 16:49:26;;;;;;;1.23;1.23;;;4.50;99.90;;;;;;5017270;28;20203;-79
2021/03/17 16:51:54;;;;;;;1.40;1.40;;;4.60;99.90;;;;;;5017202;28;20226;-80
2021/03/17 16:54:23;;;;;;;1.23;1.23;;;4.50;99.90;;;;;;5017803;28;20290;-79
2021/03/17 16:56:50;;;;;;;1.10;1.10;;;4.50;99.90;;;;;;5016070;28;20199;-79
2021/03/17 16:59:18;;;;;;;1.27;1.27;;;4.40;99.90;;;;;;5017481;28;20277;-79
2021/03/17 17:01:44;;;;;;;1.20;1.20;;;4.30;99.90;;;;;;5018447;28;20227;-78
2021/03/17 17:04:11;;;;;;;1.20;1.20;;;4.40;99.90;;;;;;5019056;28;20226;-79
2021/03/17 17:06:38;;;;;;;1.20;1.20;;;4.30;99.90;;;;;;5015905;28;20234;-80
2021/03/17 17:09:06;;;;;;;1.27;1.27;;;4.30;99.90;;;;;;5028943;28;20199;-80
2021/03/17 17:11:33;;;;;;;1.20;1.20;;;4.20;99.90;;;;;;5029730;28;20222;-79
2021/03/17 17:14:00;;;;;;;1.20;1.20;;;4.20;99.90;;;;;;5019963;28;20269;-77
2021/03/17 17:16:28;;;;;;;1.20;1.20;;;4.20;99.90;;;;;;5014118;28;20207;-77
2021/03/17 17:18:55;;;;;;;1.20;1.20;;;4.20;99.90;;;;;;5013654;28;20226;-77
2021/03/17 17:21:23;;;;;;;1.20;1.20;;;4.20;99.90;;;;;;5017538;28;20227;-79
2021/03/17 17:23:50;;;;;;;1.10;1.10;;;4.20;99.90;;;;;;5020655;28;20211;-79
2021/03/17 17:26:17;;;;;;;1.10;1.10;;;4.30;99.90;;;;;;5007847;28;20259;-82
2021/03/17 17:28:45;;;;;;;1.20;1.20;;;4.40;99.90;;;;;;5008864;28;20196;-76
2021/03/17 17:31:12;;;;;;;1.13;1.13;;;4.40;99.90;;;;;;5015581;28;20771;-78
2021/03/17 17:33:41;;;;;;;1.10;1.10;;;4.40;99.90;;;;;;5016827;28;20204;-77
2021/03/17 17:36:09;;;;;;;1.20;1.20;;;4.40;99.90;;;;;;5015582;28;20207;-78
2021/03/17 17:38:36;;;;;;;1.20;1.20;;;4.50;99.90;;;;;;5014918;28;20224;-80
2021/03/17 17:41:03;;;;;;;1.30;1.30;;;4.50;99.90;;;;;;5016216;28;20227;-77
2021/03/17 17:43:30;;;;;;;1.30;1.30;;;4.60;99.90;;;;;;5011121;28;20234;-79
2021/03/17 17:45:58;;;;;;;1.13;1.13;;;4.40;99.90;;;;;;5034305;28;20230;-78
2021/03/17 17:48:25;;;;;;;1.37;1.37;;;4.40;99.90;;;;;;5041979;28;20648;-77
2021/03/17 17:50:53;;;;;;;1.30;1.30;;;4.30;99.90;;;;;;5037588;28;20235;-78
2021/03/17 17:53:20;;;;;;;1.40;1.40;;;4.20;99.90;;;;;;5015001;28;20204;-77
2021/03/17 17:55:47;;;;;;;1.20;1.20;;;4.20;99.90;;;;;;5014976;28;20203;-80
2021/03/17 17:58:14;;;;;;;1.40;1.40;;;;;;;;;;5016437;28;20223;-80
2021/03/17 18:00:41;;;;;;;1.10;1.10;;;4.10;99.90;;;;;;5015649;28;20223;-78
2021/03/17 18:03:08;;;;;;;1.30;1.30;;;4.10;99.90;;;;;;4995613;28;20200;-77
2021/03/17 18:05:35;;;;;;;1.20;1.20;;;4.20;99.90;;;;;;4996737;28;20637;-77
2021/03/17 18:08:03;;;;;;;1.20;1.20;;;4.30;99.90;;;;;;5012765;28;20203;-76
2021/03/17 18:10:30;;;;;;;1.40;1.40;;;4.70;99.90;;;;;;5012851;28;20316;-77
2021/03/17 18:12:59;;;;;;;1.20;1.20;;;4.50;99.90;;;;;;5013704;28;20211;-78
2021/03/17 18:15:27;;;;;;;1.30;1.30;;;4.60;99.90;;;;;;5013646;28;20286;-78
2021/03/17 18:17:57;;;;;;;1.60;1.60;;;4.50;99.90;;;;;;5012513;28;20230;-82
2021/03/17 18:20:27;;;;;;;1.40;1.40;;;4.40;99.90;;;;;;5015389;28;20207;-78
2021/03/17 18:22:59;;;;;;;1.10;1.10;;;4.40;99.90;;;;;;5014296;28;20627;-78
2021/03/17 18:25:28;;;;;;;1.20;1.20;;;4.30;99.90;;;;;;5013956;28;20213;-77
2021/03/17 18:27:57;;;;;;;1.30;1.30;;;4.30;99.90;;;;;;5013856;28;20203;-78